Rowangarth — UUBA5 — position and weather

sailwx.info

Track history (hours):
 
Tides and Currents Weather Stations Pressure Air Temp Water Temp Dewpoint Dewpoint Depression Visibility Wind Speed Wind Dir Waves Ship Positions

Rowangarth

Last reported at 2017-Oct-22 13:30 UTC. Time now 2017-Oct-22 13:41 UTC.
Position N 46°57' E 031°59'.

Length 32 m; draft 4 m.

Type: Tug. MMSI: 272134800.

Date/timePositionNaut miles runAvg speedWind from/ knotsBaromVisibWave heightAir tempDewpointWater temp
2017-Oct-22 13:30N 46°57' E 031°59'0 0.0
2017-Oct-22 13:00N 46°57' E 031°59'0 0.0
2017-Oct-22 12:30N 46°57' E 031°59'0 0.0
2017-Oct-22 12:00N 46°57' E 031°59'0 0.0
2017-Oct-22 11:30N 46°57' E 031°59'0 0.0
2017-Oct-22 11:00N 46°57' E 031°59'0 0.0
2017-Oct-22 10:31N 46°57' E 031°59'0 0.0
2017-Oct-22 10:00N 46°57' E 031°59'0 0.0
2017-Oct-22 09:30N 46°57' E 031°59'0 0.0
2017-Oct-22 09:00N 46°57' E 031°59'0 0.0
2017-Oct-22 08:30N 46°57' E 031°59'0 0.0
2017-Oct-22 08:01N 46°57' E 031°59'0 0.0
2017-Oct-22 07:30N 46°57' E 031°60'0 0.0
2017-Oct-22 07:00N 46°57' E 031°59'0 0.0
2017-Oct-22 06:31N 46°57' E 031°59'0 0.0
2017-Oct-22 06:00N 46°57' E 031°59'0 0.0
2017-Oct-22 05:30N 46°57' E 031°59'0 0.0
2017-Oct-22 05:00N 46°57' E 031°59'0 0.0
2017-Oct-22 04:30N 46°57' E 031°59'0 0.0
2017-Oct-22 04:00N 46°57' E 031°59'0 0.0
2017-Oct-22 03:31N 46°57' E 031°59'0 0.0
2017-Oct-22 03:00N 46°57' E 031°59'0 0.0
2017-Oct-22 02:30N 46°57' E 031°59'0 0.0
2017-Oct-22 02:00N 46°57' E 031°59'0 0.0
2017-Oct-22 01:30N 46°57' E 031°59'0 0.0
2017-Oct-22 01:00N 46°57' E 031°59'0 0.0
2017-Oct-22 00:30N 46°57' E 031°59'0 0.0
2017-Oct-22 00:00N 46°57' E 031°59'0 0.0
2017-Oct-21 23:30N 46°57' E 031°59'0 0.0
2017-Oct-21 23:00N 46°57' E 031°59'0 0.0
2017-Oct-21 22:30N 46°57' E 031°59'0 0.0
2017-Oct-21 22:00N 46°57' E 031°59'0 0.0
2017-Oct-21 21:30N 46°57' E 031°59'0 0.0
2017-Oct-21 21:01N 46°57' E 031°59'0 0.0
2017-Oct-21 20:30N 46°57' E 031°59'0 0.0
2017-Oct-21 20:00N 46°57' E 031°59'0 0.0
2017-Oct-21 19:30N 46°57' E 031°59'0 0.0
2017-Oct-21 19:00N 46°57' E 031°59'0 0.0
2017-Oct-21 18:31N 46°57' E 031°59'0 0.0
2017-Oct-21 18:00N 46°57' E 031°59'0 0.0
2017-Oct-21 17:30N 46°57' E 031°59'0 0.0
2017-Oct-21 17:00N 46°57' E 031°59'0 0.0
2017-Oct-21 16:30N 46°57' E 031°59'0 0.0
2017-Oct-21 16:00N 46°57' E 031°59'0 0.0
2017-Oct-21 15:30N 46°57' E 031°59'0 0.0
2017-Oct-21 15:00N 46°57' E 031°59'0 0.0
2017-Oct-21 14:31N 46°57' E 031°59'0 0.0
2017-Oct-21 13:30N 46°57' E 031°59'0 0.0
2017-Oct-21 13:00N 46°57' E 031°59'0 0.0
2017-Oct-21 12:31N 46°57' E 031°59'0 0.0
2017-Oct-21 12:00N 46°57' E 031°59'0 0.0
2017-Oct-21 11:30N 46°57' E 031°59'0 0.0
2017-Oct-21 11:01N 46°57' E 031°59'0 0.0
2017-Oct-21 10:30N 46°57' E 031°59'0 0.0
2017-Oct-21 10:00N 46°57' E 031°59'1 2.5
2017-Oct-21 09:31N 46°56' E 032°01'0 0.7
2017-Oct-21 09:00N 46°56' E 032°01'2 4.5
2017-Oct-21 08:30N 46°54' E 032°00'510.7
2017-Oct-21 08:00N 46°50' E 031°55'4 9.0
2017-Oct-21 07:31N 46°45' E 031°54'6 8.0
2017-Oct-21 06:49N 46°40' E 031°56'3 7.7
2017-Oct-21 06:28N 46°38' E 031°54'6 9.3
2017-Oct-21 05:52N 46°36' E 031°46'710.6
2017-Oct-21 05:12N 46°35' E 031°36'2 9.1
2017-Oct-21 04:59N 46°35' E 031°33'3 6.2
2017-Oct-21 04:27N 46°36' E 031°29'10 5.1
2017-Oct-21 02:27N 46°36' E 031°44'4 9.5
2017-Oct-21 02:00N 46°36' E 031°50'5 9.4
2017-Oct-21 01:30N 46°39' E 031°56'5 9.7
2017-Oct-21 01:00N 46°44' E 031°56'5 9.1
2017-Oct-21 00:31N 46°48' E 031°53'5 9.8
2017-Oct-21 00:01N 46°52' E 031°58'5 9.4
2017-Oct-20 23:30N 46°56' E 032°01'2 3.0
2017-Oct-20 23:00N 46°57' E 031°59'0 0.0
2017-Oct-20 22:30N 46°57' E 031°59'0 0.0
2017-Oct-20 22:00N 46°57' E 031°59'2 3.5
2017-Oct-20 21:30N 46°56' E 032°01'5 9.2
2017-Oct-20 21:00N 46°52' E 031°58'5 9.9
2017-Oct-20 20:30N 46°48' E 031°53'4 8.6
2017-Oct-20 20:00N 46°44' E 031°56'5 9.8
2017-Oct-20 19:30N 46°39' E 031°56'7 9.9
2017-Oct-20 18:50N 46°36' E 031°47'7 9.8
2017-Oct-20 18:05N 46°35' E 031°37'2 2.6
2017-Oct-20 17:12N 46°35' E 031°33'5 9.7
2017-Oct-20 16:39N 46°36' E 031°41'2 9.9
2017-Oct-20 16:25N 46°36' E 031°44'4 9.6
2017-Oct-20 15:57N 46°37' E 031°51'4 9.4
2017-Oct-20 15:30N 46°39' E 031°56'5 9.6
2017-Oct-20 15:01N 46°44' E 031°56'5 9.0
2017-Oct-20 14:31N 46°48' E 031°53'9 9.4
2017-Oct-20 13:30N 46°56' E 032°01'1 2.7
2017-Oct-20 13:00N 46°57' E 032°00'1 1.2
2017-Oct-20 12:31N 46°57' E 031°59'0 0.0
2017-Oct-20 12:00N 46°57' E 031°59'0 0.0
2017-Oct-20 11:31N 46°57' E 031°59'0 0.0
2017-Oct-20 11:01N 46°57' E 031°59'0 0.0
2017-Oct-20 10:31N 46°57' E 031°59'0 0.0
2017-Oct-20 10:00N 46°57' E 031°59'0 0.0
2017-Oct-20 09:30N 46°57' E 031°59'0 0.0
2017-Oct-20 09:00N 46°57' E 031°59'0 0.0
2017-Oct-20 08:30N 46°57' E 031°59'0 0.0
2017-Oct-20 08:01N 46°57' E 031°59'0 0.0
2017-Oct-20 07:30N 46°57' E 031°59'0 0.0
2017-Oct-20 07:00N 46°57' E 031°59'0 0.0
2017-Oct-20 06:30N 46°57' E 031°59'0 0.0
2017-Oct-20 06:01N 46°57' E 031°59'0 0.0
2017-Oct-20 05:31N 46°57' E 031°59'0 0.0
2017-Oct-20 05:01N 46°57' E 031°59'0 0.0
2017-Oct-20 04:31N 46°57' E 031°59'0 0.0
2017-Oct-20 04:01N 46°57' E 031°60'0 0.0
2017-Oct-20 03:30N 46°57' E 031°59'0 0.0
2017-Oct-20 03:01N 46°57' E 031°59'0 0.0
2017-Oct-20 02:31N 46°57' E 031°59'0 0.0
2017-Oct-20 02:00N 46°57' E 031°59'0 0.0
2017-Oct-20 01:31N 46°57' E 031°59'0 0.0
2017-Oct-20 01:01N 46°57' E 031°59'0 0.0
2017-Oct-20 00:31N 46°57' E 031°59'0 0.0
2017-Oct-20 00:01N 46°57' E 031°59'0 0.0
2017-Oct-19 23:31N 46°57' E 031°59'0 0.0
2017-Oct-19 23:01N 46°57' E 031°59'1 2.5
2017-Oct-19 22:31N 46°56' E 032°01'0 0.6
2017-Oct-19 22:01N 46°56' E 032°01'1 1.8
2017-Oct-19 21:31N 46°57' E 031°60'0 0.6
2017-Oct-19 21:01N 46°57' E 031°59'0 0.6
2017-Oct-19 20:30N 46°57' E 031°60'0 0.6
2017-Oct-19 20:01N 46°57' E 032°00'1 1.0
2017-Oct-19 19:30N 46°56' E 032°01'0 0.4
2017-Oct-19 19:00N 46°56' E 032°01'1 2.6
2017-Oct-19 18:31N 46°57' E 031°59'0 0.0
2017-Oct-19 18:00N 46°57' E 031°59'0 0.0
2017-Oct-19 17:30N 46°57' E 031°59'0 0.0
2017-Oct-19 17:00N 46°57' E 031°59'0 0.0
2017-Oct-19 16:31N 46°57' E 031°59'0 0.0
2017-Oct-19 16:00N 46°57' E 031°59'0 0.0
2017-Oct-19 15:31N 46°57' E 031°59'0 0.0
2017-Oct-19 15:01N 46°57' E 031°59'0 0.0
2017-Oct-19 14:30N 46°57' E 031°59'0 0.0
2017-Oct-19 14:01N 46°57' E 031°59'0 0.0
2017-Oct-19 13:31N 46°57' E 031°59'0 0.0
2017-Oct-19 13:01N 46°57' E 031°59'0 0.0
2017-Oct-19 12:31N 46°57' E 031°59'0 0.0
2017-Oct-19 12:01N 46°57' E 031°59'0 0.0
2017-Oct-19 11:31N 46°57' E 031°59'0 0.0
2017-Oct-19 11:01N 46°57' E 031°59'0 0.0
2017-Oct-19 10:31N 46°57' E 031°59'0 0.0
2017-Oct-19 10:01N 46°57' E 031°59'0 0.0
2017-Oct-19 09:31N 46°57' E 031°59'0 0.0
2017-Oct-19 09:00N 46°57' E 031°59'0 0.0
2017-Oct-19 08:31N 46°57' E 031°59'0 0.0
2017-Oct-19 08:01N 46°57' E 031°59'0 0.0
2017-Oct-19 07:30N 46°57' E 031°59'0 0.0
2017-Oct-19 07:01N 46°57' E 031°59'0 0.0
2017-Oct-19 06:31N 46°57' E 031°59'0 0.0
2017-Oct-19 06:01N 46°57' E 031°59'0 0.0
2017-Oct-19 05:31N 46°57' E 031°59'0 0.0
2017-Oct-19 05:01N 46°57' E 031°59'0 0.0
2017-Oct-19 04:30N 46°57' E 031°59'0 0.0
2017-Oct-19 04:01N 46°57' E 031°59'0 0.0
2017-Oct-19 03:31N 46°57' E 031°59'0 0.0
2017-Oct-19 03:01N 46°57' E 031°59'0 0.0
2017-Oct-19 02:30N 46°57' E 031°59'0 0.0
2017-Oct-19 02:01N 46°57' E 031°59'0 0.0
2017-Oct-19 01:30N 46°57' E 031°59'0 0.0
2017-Oct-19 01:01N 46°57' E 031°59'0 0.0
2017-Oct-19 00:31N 46°57' E 031°59'0 0.0
2017-Oct-19 00:01N 46°57' E 031°59'0 0.0
2017-Oct-18 23:31N 46°57' E 031°59'0 0.0
2017-Oct-18 23:00N 46°57' E 031°59'0 0.0
2017-Oct-18 22:31N 46°57' E 031°59'0 0.0
2017-Oct-18 22:00N 46°57' E 031°59'0 0.0
2017-Oct-18 21:31N 46°57' E 031°59'0 0.0
2017-Oct-18 21:01N 46°57' E 031°59'0 0.0
2017-Oct-18 20:30N 46°57' E 031°59'0 0.0
2017-Oct-18 20:01N 46°57' E 031°59'0 0.0
2017-Oct-18 19:30N 46°57' E 031°59'0 0.0
2017-Oct-18 19:00N 46°57' E 031°59'0 0.0
2017-Oct-18 18:31N 46°57' E 031°59'0 0.0
2017-Oct-18 18:00N 46°57' E 031°59'0 0.0
2017-Oct-18 17:30N 46°57' E 031°59'0 0.0
2017-Oct-18 17:00N 46°57' E 031°59'0 0.0
2017-Oct-18 16:30N 46°57' E 031°59'0 0.0
2017-Oct-18 16:00N 46°57' E 031°59'0 0.0
2017-Oct-18 15:31N 46°57' E 031°59'0 0.0
2017-Oct-18 15:01N 46°57' E 031°59'0 0.0
2017-Oct-18 14:01N 46°57' E 031°59'0 0.0
2017-Oct-18 13:31N 46°57' E 031°59'0 0.0
2017-Oct-18 13:01N 46°57' E 031°59'1 1.7
2017-Oct-18 12:31N 46°56' E 032°00'4 8.9
2017-Oct-18 12:01N 46°52' E 031°59'23 7.5
2017-Oct-18 09:00N 46°35' E 031°36'2 2.5
2017-Oct-18 08:08N 46°35' E 031°33'710.0
2017-Oct-18 07:27N 46°36' E 031°43'5 9.9
2017-Oct-18 06:57N 46°36' E 031°50'4 9.6
2017-Oct-18 06:31N 46°39' E 031°55'5 9.8
2017-Oct-18 06:00N 46°44' E 031°56'5 9.2
2017-Oct-18 05:31N 46°48' E 031°53'510.3
2017-Oct-18 05:00N 46°52' E 031°58'5 9.1
2017-Oct-18 04:31N 46°56' E 032°01'1 1.4
2017-Oct-18 04:01N 46°56' E 032°01'1 2.6
2017-Oct-18 03:31N 46°57' E 031°59'0 0.0
2017-Oct-18 03:00N 46°57' E 031°59'0 0.0
2017-Oct-18 02:30N 46°57' E 031°59'0 0.0
2017-Oct-18 02:01N 46°57' E 031°59'0 0.0
2017-Oct-18 01:31N 46°57' E 031°59'1 1.6
2017-Oct-18 01:01N 46°57' E 032°01'0 0.4
2017-Oct-18 00:31N 46°56' E 032°01'0 0.3
2017-Oct-18 00:01N 46°57' E 032°01'1 1.1
2017-Oct-17 23:31N 46°56' E 032°01'1 2.6
2017-Oct-17 23:01N 46°57' E 031°59'0 0.0
2017-Oct-17 22:31N 46°57' E 031°59'0 0.0
2017-Oct-17 22:01N 46°57' E 031°59'0 0.0
2017-Oct-17 21:31N 46°57' E 031°59'0 0.0
2017-Oct-17 21:01N 46°57' E 031°59'0 0.0
2017-Oct-17 20:30N 46°57' E 031°59'0 0.0
2017-Oct-17 20:00N 46°57' E 031°59'0 0.0
2017-Oct-17 19:31N 46°57' E 031°59'0 0.0
2017-Oct-17 19:01N 46°57' E 031°59'0 0.0
2017-Oct-17 18:31N 46°57' E 031°59'0 0.0
2017-Oct-17 18:00N 46°57' E 031°59'0 0.0
2017-Oct-17 17:31N 46°57' E 031°59'0 0.0
2017-Oct-17 17:01N 46°57' E 031°59'0 0.0
2017-Oct-17 16:31N 46°57' E 031°59'0 0.0
2017-Oct-17 16:01N 46°57' E 031°59'0 0.0
2017-Oct-17 15:31N 46°57' E 031°59'0 0.0
2017-Oct-17 15:01N 46°57' E 031°59'0 0.0
2017-Oct-17 14:31N 46°57' E 031°59'0 0.0
2017-Oct-17 14:01N 46°57' E 031°59'0 0.0
2017-Oct-17 13:30N 46°57' E 031°59'0 0.0
2017-Oct-17 13:01N 46°57' E 031°59'0 0.0
2017-Oct-17 12:30N 46°57' E 031°59'1 2.4
2017-Oct-17 12:00N 46°56' E 032°01'0 0.2
2017-Oct-17 11:31N 46°56' E 032°01'1 2.3
2017-Oct-17 11:01N 46°57' E 031°59'0 0.0
2017-Oct-17 10:30N 46°57' E 031°59'1 2.4
2017-Oct-17 10:01N 46°56' E 032°01'1 2.4
2017-Oct-17 09:31N 46°57' E 031°59'0 0.0
2017-Oct-17 09:00N 46°57' E 031°60'0 0.0
2017-Oct-17 08:31N 46°57' E 031°60'0 0.0
2017-Oct-17 08:01N 46°57' E 031°60'0 0.0
2017-Oct-17 07:31N 46°57' E 031°59'0 0.0
2017-Oct-17 07:01N 46°57' E 031°59'0 0.0
2017-Oct-17 06:31N 46°57' E 031°59'0 0.0
2017-Oct-17 06:00N 46°57' E 031°59'0 0.0
2017-Oct-17 05:31N 46°57' E 031°59'0 0.0
2017-Oct-17 05:01N 46°57' E 031°59'0 0.0
2017-Oct-17 04:30N 46°57' E 031°59'1 1.7
2017-Oct-17 04:00N 46°57' E 032°01'1 1.7
2017-Oct-17 03:31N 46°57' E 031°59'0 0.0
2017-Oct-17 03:00N 46°57' E 031°59'0 0.0
2017-Oct-17 02:31N 46°57' E 031°59'0 0.0
2017-Oct-17 02:01N 46°57' E 031°59'0 0.0
2017-Oct-17 01:31N 46°57' E 031°59'0 0.0
2017-Oct-17 01:01N 46°57' E 031°59'0 0.0
2017-Oct-17 00:31N 46°57' E 031°59'0 0.0
2017-Oct-17 00:01N 46°57' E 031°59'0 0.0
2017-Oct-16 23:31N 46°57' E 031°59'0 0.0
2017-Oct-16 23:00N 46°57' E 031°59'0 0.0
2017-Oct-16 22:31N 46°57' E 031°59'0 0.0
2017-Oct-16 22:01N 46°57' E 031°59'0 0.0
2017-Oct-16 21:30N 46°57' E 031°59'0 0.0
2017-Oct-16 21:01N 46°57' E 031°59'0 0.0
2017-Oct-16 20:31N 46°57' E 031°59'0 0.0
2017-Oct-16 20:01N 46°57' E 031°59'0 0.0
2017-Oct-16 19:31N 46°57' E 031°59'0 0.0
2017-Oct-16 19:01N 46°57' E 031°59'0 0.0
2017-Oct-16 18:31N 46°57' E 031°59'0 0.0
2017-Oct-16 18:01N 46°57' E 031°59'0 0.0
2017-Oct-16 17:31N 46°57' E 031°59'0 0.0
2017-Oct-16 17:01N 46°57' E 031°59'0 0.0
2017-Oct-16 16:31N 46°57' E 031°59'0 0.0
2017-Oct-16 16:01N 46°57' E 031°59'0 0.0
2017-Oct-16 15:31N 46°57' E 031°59'0 0.0
2017-Oct-16 15:01N 46°57' E 031°59'0 0.0
2017-Oct-16 14:31N 46°57' E 031°59'0 0.0
2017-Oct-16 13:30N 46°57' E 031°59'0 0.0
2017-Oct-16 13:01N 46°57' E 031°59'0 0.0
2017-Oct-16 12:31N 46°57' E 031°59'0 0.0
2017-Oct-16 12:01N 46°57' E 031°59'0 0.0
2017-Oct-16 11:31N 46°57' E 031°59'0 0.0
2017-Oct-16 11:01N 46°57' E 031°59'0 0.0
2017-Oct-16 10:31N 46°57' E 031°59'0 0.0
2017-Oct-16 10:01N 46°57' E 031°59'0 0.0
2017-Oct-16 09:31N 46°57' E 031°59'0 0.9
2017-Oct-16 09:01N 46°56' E 031°59'0 0.9
2017-Oct-16 08:31N 46°57' E 031°59'0 0.0
2017-Oct-16 08:01N 46°57' E 031°59'0 0.0
2017-Oct-16 07:31N 46°57' E 031°59'0 0.0
2017-Oct-16 07:01N 46°57' E 031°59'0 0.0
2017-Oct-16 06:31N 46°57' E 031°59'0 0.0
2017-Oct-16 06:00N 46°57' E 031°59'0 0.0
2017-Oct-16 05:30N 46°57' E 031°59'0 0.0
2017-Oct-16 05:01N 46°57' E 031°59'0 0.0
2017-Oct-16 04:31N 46°57' E 031°59'0 0.0
2017-Oct-16 04:01N 46°57' E 031°59'0 0.0
2017-Oct-16 03:31N 46°57' E 031°59'0 0.0
2017-Oct-16 03:00N 46°57' E 031°59'0 0.0
2017-Oct-16 02:30N 46°57' E 031°59'0 0.0
2017-Oct-16 02:01N 46°57' E 031°59'0 0.0
2017-Oct-16 01:31N 46°57' E 031°59'0 0.0
2017-Oct-16 01:01N 46°57' E 031°59'0 0.0
2017-Oct-16 00:30N 46°57' E 031°59'0 0.0
2017-Oct-16 00:01N 46°57' E 031°59'0 0.0
2017-Oct-15 23:30N 46°57' E 031°59'0 0.0
2017-Oct-15 23:01N 46°57' E 031°59'0 0.0
2017-Oct-15 22:30N 46°57' E 031°59'0 0.0
2017-Oct-15 22:00N 46°57' E 031°59'0 0.0
2017-Oct-15 21:30N 46°57' E 031°59'0 0.0
2017-Oct-15 21:00N 46°57' E 031°59'0 0.0
2017-Oct-15 20:30N 46°57' E 031°59'0 0.0
2017-Oct-15 20:00N 46°57' E 031°59'0 0.0
2017-Oct-15 19:30N 46°57' E 031°59'0 0.0
2017-Oct-15 19:01N 46°57' E 031°59'0 0.0
2017-Oct-15 18:31N 46°57' E 031°59'0 0.0
2017-Oct-15 18:00N 46°57' E 031°59'0 0.0
2017-Oct-15 17:30N 46°57' E 031°59'0 0.0
2017-Oct-15 17:01N 46°57' E 031°59'0 0.0
2017-Oct-15 16:31N 46°57' E 031°59'0 0.0
2017-Oct-15 16:00N 46°57' E 031°59'0 0.0
2017-Oct-15 15:30N 46°57' E 031°59'0 0.0
2017-Oct-15 15:01N 46°57' E 031°59'0 0.0
2017-Oct-15 14:01N 46°57' E 031°59'0 0.0
2017-Oct-15 13:30N 46°57' E 031°59'0 0.0
2017-Oct-15 13:00N 46°57' E 031°59'0 0.0
2017-Oct-15 12:30N 46°57' E 031°59'0 0.0
2017-Oct-15 12:01N 46°57' E 031°59'0 0.0
2017-Oct-15 11:31N 46°57' E 031°59'0 0.0
2017-Oct-15 11:01N 46°57' E 031°59'0 0.0
2017-Oct-15 10:30N 46°57' E 031°59'0 0.0
2017-Oct-15 10:01N 46°57' E 031°60'0 0.0
2017-Oct-15 09:31N 46°57' E 031°59'1 2.7
2017-Oct-15 09:01N 46°56' E 032°01'0 0.1
2017-Oct-15 08:30N 46°56' E 032°01'1 1.4
2017-Oct-15 08:00N 46°57' E 032°00'4 8.0
2017-Oct-15 07:30N 46°53' E 031°59'510.2
2017-Oct-15 07:01N 46°49' E 031°54'4 8.9
2017-Oct-15 06:31N 46°45' E 031°55'5 9.2
2017-Oct-15 06:00N 46°40' E 031°56'5 9.4
2017-Oct-15 05:30N 46°37' E 031°51'5 9.7
2017-Oct-15 05:00N 46°36' E 031°44'0 0.2
2017-Oct-15 02:28N 46°36' E 031°43'4 9.7
2017-Oct-15 02:00N 46°36' E 031°50'5 9.7
2017-Oct-15 01:31N 46°39' E 031°56'5 9.7
2017-Oct-15 01:00N 46°44' E 031°56'5 9.1
2017-Oct-15 00:30N 46°48' E 031°53'510.0
2017-Oct-15 00:00N 46°52' E 031°58'5 9.1
2017-Oct-14 23:31N 46°56' E 032°01'1 2.2
2017-Oct-14 23:01N 46°57' E 031°59'0 0.0
2017-Oct-14 22:31N 46°57' E 031°59'0 0.0
2017-Oct-14 22:00N 46°57' E 031°59'0 0.0
2017-Oct-14 21:30N 46°57' E 031°59'0 0.0
2017-Oct-14 21:00N 46°57' E 031°59'0 0.0
2017-Oct-14 20:30N 46°57' E 031°59'0 0.0
2017-Oct-14 20:00N 46°57' E 031°59'0 0.0
2017-Oct-14 19:30N 46°57' E 031°59'0 0.0
2017-Oct-14 19:00N 46°57' E 031°59'0 0.0
2017-Oct-14 18:31N 46°57' E 031°59'0 0.0
2017-Oct-14 18:00N 46°57' E 031°59'0 0.0
2017-Oct-14 17:30N 46°57' E 031°59'1 1.3
2017-Oct-14 17:00N 46°57' E 032°00'0 0.9
2017-Oct-14 16:30N 46°57' E 031°60'1 2.0
2017-Oct-14 16:00N 46°56' E 032°01'0 0.7
2017-Oct-14 15:30N 46°57' E 032°01'1 1.1
2017-Oct-14 15:00N 46°57' E 031°60'0 0.7
2017-Oct-14 14:31N 46°57' E 031°59'0 0.0
2017-Oct-14 14:01N 46°57' E 031°59'0 0.0
2017-Oct-14 13:30N 46°57' E 031°59'0 0.0
2017-Oct-14 13:00N 46°57' E 031°59'0 0.0
2017-Oct-14 12:30N 46°57' E 031°59'0 0.0
2017-Oct-14 12:00N 46°57' E 031°59'1 1.9
2017-Oct-14 11:31N 46°57' E 032°01'0 1.0
2017-Oct-14 11:00N 46°56' E 032°01'1 2.7
2017-Oct-14 10:31N 46°57' E 031°59'0 0.0
2017-Oct-14 10:00N 46°57' E 031°59'0 0.0
2017-Oct-14 09:31N 46°57' E 031°59'0 0.0
2017-Oct-14 09:00N 46°57' E 031°60'0 0.0
2017-Oct-14 08:31N 46°57' E 031°59'0 0.0
2017-Oct-14 08:01N 46°57' E 031°60'0 0.0
2017-Oct-14 07:30N 46°57' E 031°59'0 0.0
2017-Oct-14 07:01N 46°57' E 031°59'0 0.0
2017-Oct-14 06:30N 46°57' E 031°59'0 0.0
2017-Oct-14 06:00N 46°57' E 031°59'0 0.0
2017-Oct-14 05:31N 46°57' E 031°59'0 0.0
2017-Oct-14 05:01N 46°57' E 031°59'0 0.0
2017-Oct-14 04:31N 46°57' E 031°59'0 0.0
2017-Oct-14 04:00N 46°57' E 031°59'0 0.0
2017-Oct-14 03:30N 46°57' E 031°59'0 0.0
2017-Oct-14 03:01N 46°57' E 031°59'0 0.0
2017-Oct-14 02:31N 46°57' E 031°59'0 0.0
2017-Oct-14 02:00N 46°57' E 031°59'0 0.0
2017-Oct-14 01:30N 46°57' E 031°59'0 0.0
2017-Oct-14 01:00N 46°57' E 031°59'0 0.0
2017-Oct-14 00:30N 46°57' E 031°59'0 0.0
2017-Oct-14 00:00N 46°57' E 031°59'0 0.0
2017-Oct-13 23:30N 46°57' E 031°59'0 0.0
2017-Oct-13 23:01N 46°57' E 031°59'0 0.0
2017-Oct-13 22:30N 46°57' E 031°59'0 0.0
2017-Oct-13 22:01N 46°57' E 031°59'0 0.0
2017-Oct-13 21:31N 46°57' E 031°59'0 0.0
2017-Oct-13 21:00N 46°57' E 031°59'0 0.0
2017-Oct-13 20:30N 46°57' E 031°59'0 0.0
2017-Oct-13 20:00N 46°57' E 031°59'0 0.0
2017-Oct-13 19:30N 46°57' E 031°59'0 0.0
2017-Oct-13 19:00N 46°57' E 031°59'0 0.0
2017-Oct-13 18:30N 46°57' E 031°59'0 0.0
2017-Oct-13 18:00N 46°57' E 031°59'0 0.0
2017-Oct-13 17:30N 46°57' E 031°59'0 0.0
2017-Oct-13 17:00N 46°57' E 031°59'0 0.0
2017-Oct-13 16:30N 46°57' E 031°59'0 0.0
2017-Oct-13 16:00N 46°57' E 031°59'0 0.0
2017-Oct-13 15:30N 46°57' E 031°59'0 0.0
2017-Oct-13 15:00N 46°57' E 031°59'0 0.0
2017-Oct-13 14:30N 46°57' E 031°59'0 0.0
2017-Oct-13 14:00N 46°57' E 031°59'0 0.0
2017-Oct-13 13:30N 46°57' E 031°59'0 0.0
2017-Oct-13 13:00N 46°57' E 031°59'0 0.0
2017-Oct-13 12:30N 46°57' E 031°59'0 0.0
2017-Oct-13 12:00N 46°57' E 031°59'0 0.0
2017-Oct-13 11:30N 46°57' E 031°59'0 0.0
2017-Oct-13 11:00N 46°57' E 031°59'0 0.0
2017-Oct-13 10:30N 46°57' E 031°59'0 0.0
2017-Oct-13 10:00N 46°57' E 031°59'0 0.0
2017-Oct-13 09:30N 46°57' E 031°59'0 0.0
2017-Oct-13 09:00N 46°57' E 031°59'0 0.0
2017-Oct-13 08:30N 46°57' E 031°59'0 0.0
2017-Oct-13 08:00N 46°57' E 031°59'0 0.0
2017-Oct-13 07:30N 46°57' E 031°59'0 0.0
2017-Oct-13 07:00N 46°57' E 031°59'0 0.0
2017-Oct-13 06:30N 46°57' E 031°59'0 0.0
2017-Oct-13 06:00N 46°57' E 031°59'0 0.0
2017-Oct-13 05:30N 46°57' E 031°59'0 0.0
2017-Oct-13 05:00N 46°57' E 031°59'0 0.0
2017-Oct-13 04:30N 46°57' E 031°59'0 0.0
2017-Oct-13 04:00N 46°57' E 031°59'0 0.0
2017-Oct-13 03:30N 46°57' E 031°59'0 0.0
2017-Oct-13 03:00N 46°57' E 031°59'0 0.0
2017-Oct-13 02:30N 46°57' E 031°59'0 0.0
2017-Oct-13 02:00N 46°57' E 031°59'0 0.0
2017-Oct-13 01:30N 46°57' E 031°59'0 0.0
2017-Oct-13 01:00N 46°57' E 031°59'0 0.0
2017-Oct-13 00:30N 46°57' E 031°59'0 0.0
2017-Oct-13 00:00N 46°57' E 031°59'0 0.0
2017-Oct-12 23:30N 46°57' E 031°59'0 0.0
2017-Oct-12 23:00N 46°57' E 031°59'0 0.0
2017-Oct-12 22:30N 46°57' E 031°59'0 0.0
2017-Oct-12 22:00N 46°57' E 031°59'0 0.0
2017-Oct-12 21:30N 46°57' E 031°59'0 0.0
2017-Oct-12 21:00N 46°57' E 031°59'0 0.0
2017-Oct-12 20:30N 46°57' E 031°59'0 0.0
2017-Oct-12 20:00N 46°57' E 031°59'0 0.0
2017-Oct-12 19:30N 46°57' E 031°59'0 0.0
2017-Oct-12 19:00N 46°57' E 031°59'0 0.0
2017-Oct-12 18:30N 46°57' E 031°59'0 0.0
2017-Oct-12 18:00N 46°57' E 031°59'0 0.0
2017-Oct-12 17:30N 46°57' E 031°59'0 0.0
2017-Oct-12 17:00N 46°57' E 031°59'0 0.0
2017-Oct-12 16:30N 46°57' E 031°59'0 0.0
2017-Oct-12 16:00N 46°57' E 031°59'0 0.0
2017-Oct-12 15:30N 46°57' E 031°59'0 0.0
2017-Oct-12 15:00N 46°57' E 031°59'0 0.0
2017-Oct-12 14:30N 46°57' E 031°59'0 0.0
2017-Oct-12 14:00N 46°57' E 031°59'0 0.0
2017-Oct-12 13:30N 46°57' E 031°59'  
Track history (hours):
 
Tides and Currents Weather Stations Pressure Air Temp Water Temp Dewpoint Dewpoint Depression Visibility Wind Speed Wind Dir Waves Ship Positions

Rowangarth

Last reported at 2017-Oct-22 13:30 UTC. Time now 2017-Oct-22 13:41 UTC.
Position N 46°57' E 031°59'.

Length 32 m; draft 4 m.

Type: Tug. MMSI: 272134800.

Date/timePositionNaut miles runAvg speedWind from/ knotsBaromVisibWave heightAir tempDewpointWater temp
2017-Oct-22 13:30N 46°57' E 031°59'0 0.0
2017-Oct-22 13:00N 46°57' E 031°59'0 0.0
2017-Oct-22 12:30N 46°57' E 031°59'0 0.0
2017-Oct-22 12:00N 46°57' E 031°59'0 0.0
2017-Oct-22 11:30N 46°57' E 031°59'0 0.0
2017-Oct-22 11:00N 46°57' E 031°59'0 0.0
2017-Oct-22 10:31N 46°57' E 031°59'0 0.0
2017-Oct-22 10:00N 46°57' E 031°59'0 0.0
2017-Oct-22 09:30N 46°57' E 031°59'0 0.0
2017-Oct-22 09:00N 46°57' E 031°59'0 0.0
2017-Oct-22 08:30N 46°57' E 031°59'0 0.0
2017-Oct-22 08:01N 46°57' E 031°59'0 0.0
2017-Oct-22 07:30N 46°57' E 031°60'0 0.0
2017-Oct-22 07:00N 46°57' E 031°59'0 0.0
2017-Oct-22 06:31N 46°57' E 031°59'0 0.0
2017-Oct-22 06:00N 46°57' E 031°59'0 0.0
2017-Oct-22 05:30N 46°57' E 031°59'0 0.0
2017-Oct-22 05:00N 46°57' E 031°59'0 0.0
2017-Oct-22 04:30N 46°57' E 031°59'0 0.0
2017-Oct-22 04:00N 46°57' E 031°59'0 0.0
2017-Oct-22 03:31N 46°57' E 031°59'0 0.0
2017-Oct-22 03:00N 46°57' E 031°59'0 0.0
2017-Oct-22 02:30N 46°57' E 031°59'0 0.0
2017-Oct-22 02:00N 46°57' E 031°59'0 0.0
2017-Oct-22 01:30N 46°57' E 031°59'0 0.0
2017-Oct-22 01:00N 46°57' E 031°59'0 0.0
2017-Oct-22 00:30N 46°57' E 031°59'0 0.0
2017-Oct-22 00:00N 46°57' E 031°59'0 0.0
2017-Oct-21 23:30N 46°57' E 031°59'0 0.0
2017-Oct-21 23:00N 46°57' E 031°59'0 0.0
2017-Oct-21 22:30N 46°57' E 031°59'0 0.0
2017-Oct-21 22:00N 46°57' E 031°59'0 0.0
2017-Oct-21 21:30N 46°57' E 031°59'0 0.0
2017-Oct-21 21:01N 46°57' E 031°59'0 0.0
2017-Oct-21 20:30N 46°57' E 031°59'0 0.0
2017-Oct-21 20:00N 46°57' E 031°59'0 0.0
2017-Oct-21 19:30N 46°57' E 031°59'0 0.0
2017-Oct-21 19:00N 46°57' E 031°59'0 0.0
2017-Oct-21 18:31N 46°57' E 031°59'0 0.0
2017-Oct-21 18:00N 46°57' E 031°59'0 0.0
2017-Oct-21 17:30N 46°57' E 031°59'0 0.0
2017-Oct-21 17:00N 46°57' E 031°59'0 0.0
2017-Oct-21 16:30N 46°57' E 031°59'0 0.0
2017-Oct-21 16:00N 46°57' E 031°59'0 0.0
2017-Oct-21 15:30N 46°57' E 031°59'0 0.0
2017-Oct-21 15:00N 46°57' E 031°59'0 0.0
2017-Oct-21 14:31N 46°57' E 031°59'0 0.0
2017-Oct-21 13:30N 46°57' E 031°59'0 0.0
2017-Oct-21 13:00N 46°57' E 031°59'0 0.0
2017-Oct-21 12:31N 46°57' E 031°59'0 0.0
2017-Oct-21 12:00N 46°57' E 031°59'0 0.0
2017-Oct-21 11:30N 46°57' E 031°59'0 0.0
2017-Oct-21 11:01N 46°57' E 031°59'0 0.0
2017-Oct-21 10:30N 46°57' E 031°59'0 0.0
2017-Oct-21 10:00N 46°57' E 031°59'1 2.5
2017-Oct-21 09:31N 46°56' E 032°01'0 0.7
2017-Oct-21 09:00N 46°56' E 032°01'2 4.5
2017-Oct-21 08:30N 46°54' E 032°00'510.7
2017-Oct-21 08:00N 46°50' E 031°55'4 9.0
2017-Oct-21 07:31N 46°45' E 031°54'6 8.0
2017-Oct-21 06:49N 46°40' E 031°56'3 7.7
2017-Oct-21 06:28N 46°38' E 031°54'6 9.3
2017-Oct-21 05:52N 46°36' E 031°46'710.6
2017-Oct-21 05:12N 46°35' E 031°36'2 9.1
2017-Oct-21 04:59N 46°35' E 031°33'3 6.2
2017-Oct-21 04:27N 46°36' E 031°29'10 5.1
2017-Oct-21 02:27N 46°36' E 031°44'4 9.5
2017-Oct-21 02:00N 46°36' E 031°50'5 9.4
2017-Oct-21 01:30N 46°39' E 031°56'5 9.7
2017-Oct-21 01:00N 46°44' E 031°56'5 9.1
2017-Oct-21 00:31N 46°48' E 031°53'5 9.8
2017-Oct-21 00:01N 46°52' E 031°58'5 9.4
2017-Oct-20 23:30N 46°56' E 032°01'2 3.0
2017-Oct-20 23:00N 46°57' E 031°59'0 0.0
2017-Oct-20 22:30N 46°57' E 031°59'0 0.0
2017-Oct-20 22:00N 46°57' E 031°59'2 3.5
2017-Oct-20 21:30N 46°56' E 032°01'5 9.2
2017-Oct-20 21:00N 46°52' E 031°58'5 9.9
2017-Oct-20 20:30N 46°48' E 031°53'4 8.6
2017-Oct-20 20:00N 46°44' E 031°56'5 9.8
2017-Oct-20 19:30N 46°39' E 031°56'7 9.9
2017-Oct-20 18:50N 46°36' E 031°47'7 9.8
2017-Oct-20 18:05N 46°35' E 031°37'2 2.6
2017-Oct-20 17:12N 46°35' E 031°33'5 9.7
2017-Oct-20 16:39N 46°36' E 031°41'2 9.9
2017-Oct-20 16:25N 46°36' E 031°44'4 9.6
2017-Oct-20 15:57N 46°37' E 031°51'4 9.4
2017-Oct-20 15:30N 46°39' E 031°56'5 9.6
2017-Oct-20 15:01N 46°44' E 031°56'5 9.0
2017-Oct-20 14:31N 46°48' E 031°53'9 9.4
2017-Oct-20 13:30N 46°56' E 032°01'1 2.7
2017-Oct-20 13:00N 46°57' E 032°00'1 1.2
2017-Oct-20 12:31N 46°57' E 031°59'0 0.0
2017-Oct-20 12:00N 46°57' E 031°59'0 0.0
2017-Oct-20 11:31N 46°57' E 031°59'0 0.0
2017-Oct-20 11:01N 46°57' E 031°59'0 0.0
2017-Oct-20 10:31N 46°57' E 031°59'0 0.0
2017-Oct-20 10:00N 46°57' E 031°59'0 0.0
2017-Oct-20 09:30N 46°57' E 031°59'0 0.0
2017-Oct-20 09:00N 46°57' E 031°59'0 0.0
2017-Oct-20 08:30N 46°57' E 031°59'0 0.0
2017-Oct-20 08:01N 46°57' E 031°59'0 0.0
2017-Oct-20 07:30N 46°57' E 031°59'0 0.0
2017-Oct-20 07:00N 46°57' E 031°59'0 0.0
2017-Oct-20 06:30N 46°57' E 031°59'0 0.0
2017-Oct-20 06:01N 46°57' E 031°59'0 0.0
2017-Oct-20 05:31N 46°57' E 031°59'0 0.0
2017-Oct-20 05:01N 46°57' E 031°59'0 0.0
2017-Oct-20 04:31N 46°57' E 031°59'0 0.0
2017-Oct-20 04:01N 46°57' E 031°60'0 0.0
2017-Oct-20 03:30N 46°57' E 031°59'0 0.0
2017-Oct-20 03:01N 46°57' E 031°59'0 0.0
2017-Oct-20 02:31N 46°57' E 031°59'0 0.0
2017-Oct-20 02:00N 46°57' E 031°59'0 0.0
2017-Oct-20 01:31N 46°57' E 031°59'0 0.0
2017-Oct-20 01:01N 46°57' E 031°59'0 0.0
2017-Oct-20 00:31N 46°57' E 031°59'0 0.0
2017-Oct-20 00:01N 46°57' E 031°59'0 0.0
2017-Oct-19 23:31N 46°57' E 031°59'0 0.0
2017-Oct-19 23:01N 46°57' E 031°59'1 2.5
2017-Oct-19 22:31N 46°56' E 032°01'0 0.6
2017-Oct-19 22:01N 46°56' E 032°01'1 1.8
2017-Oct-19 21:31N 46°57' E 031°60'0 0.6
2017-Oct-19 21:01N 46°57' E 031°59'0 0.6
2017-Oct-19 20:30N 46°57' E 031°60'0 0.6
2017-Oct-19 20:01N 46°57' E 032°00'1 1.0
2017-Oct-19 19:30N 46°56' E 032°01'0 0.4
2017-Oct-19 19:00N 46°56' E 032°01'1 2.6
2017-Oct-19 18:31N 46°57' E 031°59'0 0.0
2017-Oct-19 18:00N 46°57' E 031°59'0 0.0
2017-Oct-19 17:30N 46°57' E 031°59'0 0.0
2017-Oct-19 17:00N 46°57' E 031°59'0 0.0
2017-Oct-19 16:31N 46°57' E 031°59'0 0.0
2017-Oct-19 16:00N 46°57' E 031°59'0 0.0
2017-Oct-19 15:31N 46°57' E 031°59'0 0.0
2017-Oct-19 15:01N 46°57' E 031°59'0 0.0
2017-Oct-19 14:30N 46°57' E 031°59'0 0.0
2017-Oct-19 14:01N 46°57' E 031°59'0 0.0
2017-Oct-19 13:31N 46°57' E 031°59'0 0.0
2017-Oct-19 13:01N 46°57' E 031°59'0 0.0
2017-Oct-19 12:31N 46°57' E 031°59'0 0.0
2017-Oct-19 12:01N 46°57' E 031°59'0 0.0
2017-Oct-19 11:31N 46°57' E 031°59'0 0.0
2017-Oct-19 11:01N 46°57' E 031°59'0 0.0
2017-Oct-19 10:31N 46°57' E 031°59'0 0.0
2017-Oct-19 10:01N 46°57' E 031°59'0 0.0
2017-Oct-19 09:31N 46°57' E 031°59'0 0.0
2017-Oct-19 09:00N 46°57' E 031°59'0 0.0
2017-Oct-19 08:31N 46°57' E 031°59'0 0.0
2017-Oct-19 08:01N 46°57' E 031°59'0 0.0
2017-Oct-19 07:30N 46°57' E 031°59'0 0.0
2017-Oct-19 07:01N 46°57' E 031°59'0 0.0
2017-Oct-19 06:31N 46°57' E 031°59'0 0.0
2017-Oct-19 06:01N 46°57' E 031°59'0 0.0
2017-Oct-19 05:31N 46°57' E 031°59'0 0.0
2017-Oct-19 05:01N 46°57' E 031°59'0 0.0
2017-Oct-19 04:30N 46°57' E 031°59'0 0.0
2017-Oct-19 04:01N 46°57' E 031°59'0 0.0
2017-Oct-19 03:31N 46°57' E 031°59'0 0.0
2017-Oct-19 03:01N 46°57' E 031°59'0 0.0
2017-Oct-19 02:30N 46°57' E 031°59'0 0.0
2017-Oct-19 02:01N 46°57' E 031°59'0 0.0
2017-Oct-19 01:30N 46°57' E 031°59'0 0.0
2017-Oct-19 01:01N 46°57' E 031°59'0 0.0
2017-Oct-19 00:31N 46°57' E 031°59'0 0.0
2017-Oct-19 00:01N 46°57' E 031°59'0 0.0
2017-Oct-18 23:31N 46°57' E 031°59'0 0.0
2017-Oct-18 23:00N 46°57' E 031°59'0 0.0
2017-Oct-18 22:31N 46°57' E 031°59'0 0.0
2017-Oct-18 22:00N 46°57' E 031°59'0 0.0
2017-Oct-18 21:31N 46°57' E 031°59'0 0.0
2017-Oct-18 21:01N 46°57' E 031°59'0 0.0
2017-Oct-18 20:30N 46°57' E 031°59'0 0.0
2017-Oct-18 20:01N 46°57' E 031°59'0 0.0
2017-Oct-18 19:30N 46°57' E 031°59'0 0.0
2017-Oct-18 19:00N 46°57' E 031°59'0 0.0
2017-Oct-18 18:31N 46°57' E 031°59'0 0.0
2017-Oct-18 18:00N 46°57' E 031°59'0 0.0
2017-Oct-18 17:30N 46°57' E 031°59'0 0.0
2017-Oct-18 17:00N 46°57' E 031°59'0 0.0
2017-Oct-18 16:30N 46°57' E 031°59'0 0.0
2017-Oct-18 16:00N 46°57' E 031°59'0 0.0
2017-Oct-18 15:31N 46°57' E 031°59'0 0.0
2017-Oct-18 15:01N 46°57' E 031°59'0 0.0
2017-Oct-18 14:01N 46°57' E 031°59'0 0.0
2017-Oct-18 13:31N 46°57' E 031°59'0 0.0
2017-Oct-18 13:01N 46°57' E 031°59'1 1.7
2017-Oct-18 12:31N 46°56' E 032°00'4 8.9
2017-Oct-18 12:01N 46°52' E 031°59'23 7.5
2017-Oct-18 09:00N 46°35' E 031°36'2 2.5
2017-Oct-18 08:08N 46°35' E 031°33'710.0
2017-Oct-18 07:27N 46°36' E 031°43'5 9.9
2017-Oct-18 06:57N 46°36' E 031°50'4 9.6
2017-Oct-18 06:31N 46°39' E 031°55'5 9.8
2017-Oct-18 06:00N 46°44' E 031°56'5 9.2
2017-Oct-18 05:31N 46°48' E 031°53'510.3
2017-Oct-18 05:00N 46°52' E 031°58'5 9.1
2017-Oct-18 04:31N 46°56' E 032°01'1 1.4
2017-Oct-18 04:01N 46°56' E 032°01'1 2.6
2017-Oct-18 03:31N 46°57' E 031°59'0 0.0
2017-Oct-18 03:00N 46°57' E 031°59'0 0.0
2017-Oct-18 02:30N 46°57' E 031°59'0 0.0
2017-Oct-18 02:01N 46°57' E 031°59'0 0.0
2017-Oct-18 01:31N 46°57' E 031°59'1 1.6
2017-Oct-18 01:01N 46°57' E 032°01'0 0.4
2017-Oct-18 00:31N 46°56' E 032°01'0 0.3
2017-Oct-18 00:01N 46°57' E 032°01'1 1.1
2017-Oct-17 23:31N 46°56' E 032°01'1 2.6
2017-Oct-17 23:01N 46°57' E 031°59'0 0.0
2017-Oct-17 22:31N 46°57' E 031°59'0 0.0
2017-Oct-17 22:01N 46°57' E 031°59'0 0.0
2017-Oct-17 21:31N 46°57' E 031°59'0 0.0
2017-Oct-17 21:01N 46°57' E 031°59'0 0.0
2017-Oct-17 20:30N 46°57' E 031°59'0 0.0
2017-Oct-17 20:00N 46°57' E 031°59'0 0.0
2017-Oct-17 19:31N 46°57' E 031°59'0 0.0
2017-Oct-17 19:01N 46°57' E 031°59'0 0.0
2017-Oct-17 18:31N 46°57' E 031°59'0 0.0
2017-Oct-17 18:00N 46°57' E 031°59'0 0.0
2017-Oct-17 17:31N 46°57' E 031°59'0 0.0
2017-Oct-17 17:01N 46°57' E 031°59'0 0.0
2017-Oct-17 16:31N 46°57' E 031°59'0 0.0
2017-Oct-17 16:01N 46°57' E 031°59'0 0.0
2017-Oct-17 15:31N 46°57' E 031°59'0 0.0
2017-Oct-17 15:01N 46°57' E 031°59'0 0.0
2017-Oct-17 14:31N 46°57' E 031°59'0 0.0
2017-Oct-17 14:01N 46°57' E 031°59'0 0.0
2017-Oct-17 13:30N 46°57' E 031°59'0 0.0
2017-Oct-17 13:01N 46°57' E 031°59'0 0.0
2017-Oct-17 12:30N 46°57' E 031°59'1 2.4
2017-Oct-17 12:00N 46°56' E 032°01'0 0.2
2017-Oct-17 11:31N 46°56' E 032°01'1 2.3
2017-Oct-17 11:01N 46°57' E 031°59'0 0.0
2017-Oct-17 10:30N 46°57' E 031°59'1 2.4
2017-Oct-17 10:01N 46°56' E 032°01'1 2.4
2017-Oct-17 09:31N 46°57' E 031°59'0 0.0
2017-Oct-17 09:00N 46°57' E 031°60'0 0.0
2017-Oct-17 08:31N 46°57' E 031°60'0 0.0
2017-Oct-17 08:01N 46°57' E 031°60'0 0.0
2017-Oct-17 07:31N 46°57' E 031°59'0 0.0
2017-Oct-17 07:01N 46°57' E 031°59'0 0.0
2017-Oct-17 06:31N 46°57' E 031°59'0 0.0
2017-Oct-17 06:00N 46°57' E 031°59'0 0.0
2017-Oct-17 05:31N 46°57' E 031°59'0 0.0
2017-Oct-17 05:01N 46°57' E 031°59'0 0.0
2017-Oct-17 04:30N 46°57' E 031°59'1 1.7
2017-Oct-17 04:00N 46°57' E 032°01'1 1.7
2017-Oct-17 03:31N 46°57' E 031°59'0 0.0
2017-Oct-17 03:00N 46°57' E 031°59'0 0.0
2017-Oct-17 02:31N 46°57' E 031°59'0 0.0
2017-Oct-17 02:01N 46°57' E 031°59'0 0.0
2017-Oct-17 01:31N 46°57' E 031°59'0 0.0
2017-Oct-17 01:01N 46°57' E 031°59'0 0.0
2017-Oct-17 00:31N 46°57' E 031°59'0 0.0
2017-Oct-17 00:01N 46°57' E 031°59'0 0.0
2017-Oct-16 23:31N 46°57' E 031°59'0 0.0
2017-Oct-16 23:00N 46°57' E 031°59'0 0.0
2017-Oct-16 22:31N 46°57' E 031°59'0 0.0
2017-Oct-16 22:01N 46°57' E 031°59'0 0.0
2017-Oct-16 21:30N 46°57' E 031°59'0 0.0
2017-Oct-16 21:01N 46°57' E 031°59'0 0.0
2017-Oct-16 20:31N 46°57' E 031°59'0 0.0
2017-Oct-16 20:01N 46°57' E 031°59'0 0.0
2017-Oct-16 19:31N 46°57' E 031°59'0 0.0
2017-Oct-16 19:01N 46°57' E 031°59'0 0.0
2017-Oct-16 18:31N 46°57' E 031°59'0 0.0
2017-Oct-16 18:01N 46°57' E 031°59'0 0.0
2017-Oct-16 17:31N 46°57' E 031°59'0 0.0
2017-Oct-16 17:01N 46°57' E 031°59'0 0.0
2017-Oct-16 16:31N 46°57' E 031°59'0 0.0
2017-Oct-16 16:01N 46°57' E 031°59'0 0.0
2017-Oct-16 15:31N 46°57' E 031°59'0 0.0
2017-Oct-16 15:01N 46°57' E 031°59'0 0.0
2017-Oct-16 14:31N 46°57' E 031°59'0 0.0
2017-Oct-16 13:30N 46°57' E 031°59'0 0.0
2017-Oct-16 13:01N 46°57' E 031°59'0 0.0
2017-Oct-16 12:31N 46°57' E 031°59'0 0.0
2017-Oct-16 12:01N 46°57' E 031°59'0 0.0
2017-Oct-16 11:31N 46°57' E 031°59'0 0.0
2017-Oct-16 11:01N 46°57' E 031°59'0 0.0
2017-Oct-16 10:31N 46°57' E 031°59'0 0.0
2017-Oct-16 10:01N 46°57' E 031°59'0 0.0
2017-Oct-16 09:31N 46°57' E 031°59'0 0.9
2017-Oct-16 09:01N 46°56' E 031°59'0 0.9
2017-Oct-16 08:31N 46°57' E 031°59'0 0.0
2017-Oct-16 08:01N 46°57' E 031°59'0 0.0
2017-Oct-16 07:31N 46°57' E 031°59'0 0.0
2017-Oct-16 07:01N 46°57' E 031°59'0 0.0
2017-Oct-16 06:31N 46°57' E 031°59'0 0.0
2017-Oct-16 06:00N 46°57' E 031°59'0 0.0
2017-Oct-16 05:30N 46°57' E 031°59'0 0.0
2017-Oct-16 05:01N 46°57' E 031°59'0 0.0
2017-Oct-16 04:31N 46°57' E 031°59'0 0.0
2017-Oct-16 04:01N 46°57' E 031°59'0 0.0
2017-Oct-16 03:31N 46°57' E 031°59'0 0.0
2017-Oct-16 03:00N 46°57' E 031°59'0 0.0
2017-Oct-16 02:30N 46°57' E 031°59'0 0.0
2017-Oct-16 02:01N 46°57' E 031°59'0 0.0
2017-Oct-16 01:31N 46°57' E 031°59'0 0.0
2017-Oct-16 01:01N 46°57' E 031°59'0 0.0
2017-Oct-16 00:30N 46°57' E 031°59'0 0.0
2017-Oct-16 00:01N 46°57' E 031°59'0 0.0
2017-Oct-15 23:30N 46°57' E 031°59'0 0.0
2017-Oct-15 23:01N 46°57' E 031°59'0 0.0
2017-Oct-15 22:30N 46°57' E 031°59'0 0.0
2017-Oct-15 22:00N 46°57' E 031°59'0 0.0
2017-Oct-15 21:30N 46°57' E 031°59'0 0.0
2017-Oct-15 21:00N 46°57' E 031°59'0 0.0
2017-Oct-15 20:30N 46°57' E 031°59'0 0.0
2017-Oct-15 20:00N 46°57' E 031°59'0 0.0
2017-Oct-15 19:30N 46°57' E 031°59'0 0.0
2017-Oct-15 19:01N 46°57' E 031°59'0 0.0
2017-Oct-15 18:31N 46°57' E 031°59'0 0.0
2017-Oct-15 18:00N 46°57' E 031°59'0 0.0
2017-Oct-15 17:30N 46°57' E 031°59'0 0.0
2017-Oct-15 17:01N 46°57' E 031°59'0 0.0
2017-Oct-15 16:31N 46°57' E 031°59'0 0.0
2017-Oct-15 16:00N 46°57' E 031°59'0 0.0
2017-Oct-15 15:30N 46°57' E 031°59'0 0.0
2017-Oct-15 15:01N 46°57' E 031°59'0 0.0
2017-Oct-15 14:01N 46°57' E 031°59'0 0.0
2017-Oct-15 13:30N 46°57' E 031°59'0 0.0
2017-Oct-15 13:00N 46°57' E 031°59'0 0.0
2017-Oct-15 12:30N 46°57' E 031°59'0 0.0
2017-Oct-15 12:01N 46°57' E 031°59'0 0.0
2017-Oct-15 11:31N 46°57' E 031°59'0 0.0
2017-Oct-15 11:01N 46°57' E 031°59'0 0.0
2017-Oct-15 10:30N 46°57' E 031°59'0 0.0
2017-Oct-15 10:01N 46°57' E 031°60'0 0.0
2017-Oct-15 09:31N 46°57' E 031°59'1 2.7
2017-Oct-15 09:01N 46°56' E 032°01'0 0.1
2017-Oct-15 08:30N 46°56' E 032°01'1 1.4
2017-Oct-15 08:00N 46°57' E 032°00'4 8.0
2017-Oct-15 07:30N 46°53' E 031°59'510.2
2017-Oct-15 07:01N 46°49' E 031°54'4 8.9
2017-Oct-15 06:31N 46°45' E 031°55'5 9.2
2017-Oct-15 06:00N 46°40' E 031°56'5 9.4
2017-Oct-15 05:30N 46°37' E 031°51'5 9.7
2017-Oct-15 05:00N 46°36' E 031°44'0 0.2
2017-Oct-15 02:28N 46°36' E 031°43'4 9.7
2017-Oct-15 02:00N 46°36' E 031°50'5 9.7
2017-Oct-15 01:31N 46°39' E 031°56'5 9.7
2017-Oct-15 01:00N 46°44' E 031°56'5 9.1
2017-Oct-15 00:30N 46°48' E 031°53'510.0
2017-Oct-15 00:00N 46°52' E 031°58'5 9.1
2017-Oct-14 23:31N 46°56' E 032°01'1 2.2
2017-Oct-14 23:01N 46°57' E 031°59'0 0.0
2017-Oct-14 22:31N 46°57' E 031°59'0 0.0
2017-Oct-14 22:00N 46°57' E 031°59'0 0.0
2017-Oct-14 21:30N 46°57' E 031°59'0 0.0
2017-Oct-14 21:00N 46°57' E 031°59'0 0.0
2017-Oct-14 20:30N 46°57' E 031°59'0 0.0
2017-Oct-14 20:00N 46°57' E 031°59'0 0.0
2017-Oct-14 19:30N 46°57' E 031°59'0 0.0
2017-Oct-14 19:00N 46°57' E 031°59'0 0.0
2017-Oct-14 18:31N 46°57' E 031°59'0 0.0
2017-Oct-14 18:00N 46°57' E 031°59'0 0.0
2017-Oct-14 17:30N 46°57' E 031°59'1 1.3
2017-Oct-14 17:00N 46°57' E 032°00'0 0.9
2017-Oct-14 16:30N 46°57' E 031°60'1 2.0
2017-Oct-14 16:00N 46°56' E 032°01'0 0.7
2017-Oct-14 15:30N 46°57' E 032°01'1 1.1
2017-Oct-14 15:00N 46°57' E 031°60'0 0.7
2017-Oct-14 14:31N 46°57' E 031°59'0 0.0
2017-Oct-14 14:01N 46°57' E 031°59'0 0.0
2017-Oct-14 13:30N 46°57' E 031°59'0 0.0
2017-Oct-14 13:00N 46°57' E 031°59'0 0.0
2017-Oct-14 12:30N 46°57' E 031°59'0 0.0
2017-Oct-14 12:00N 46°57' E 031°59'1 1.9
2017-Oct-14 11:31N 46°57' E 032°01'0 1.0
2017-Oct-14 11:00N 46°56' E 032°01'1 2.7
2017-Oct-14 10:31N 46°57' E 031°59'0 0.0
2017-Oct-14 10:00N 46°57' E 031°59'0 0.0
2017-Oct-14 09:31N 46°57' E 031°59'0 0.0
2017-Oct-14 09:00N 46°57' E 031°60'0 0.0
2017-Oct-14 08:31N 46°57' E 031°59'0 0.0
2017-Oct-14 08:01N 46°57' E 031°60'0 0.0
2017-Oct-14 07:30N 46°57' E 031°59'0 0.0
2017-Oct-14 07:01N 46°57' E 031°59'0 0.0
2017-Oct-14 06:30N 46°57' E 031°59'0 0.0
2017-Oct-14 06:00N 46°57' E 031°59'0 0.0
2017-Oct-14 05:31N 46°57' E 031°59'0 0.0
2017-Oct-14 05:01N 46°57' E 031°59'0 0.0
2017-Oct-14 04:31N 46°57' E 031°59'0 0.0
2017-Oct-14 04:00N 46°57' E 031°59'0 0.0
2017-Oct-14 03:30N 46°57' E 031°59'0 0.0
2017-Oct-14 03:01N 46°57' E 031°59'0 0.0
2017-Oct-14 02:31N 46°57' E 031°59'0 0.0
2017-Oct-14 02:00N 46°57' E 031°59'0 0.0
2017-Oct-14 01:30N 46°57' E 031°59'0 0.0
2017-Oct-14 01:00N 46°57' E 031°59'0 0.0
2017-Oct-14 00:30N 46°57' E 031°59'0 0.0
2017-Oct-14 00:00N 46°57' E 031°59'0 0.0
2017-Oct-13 23:30N 46°57' E 031°59'0 0.0
2017-Oct-13 23:01N 46°57' E 031°59'0 0.0
2017-Oct-13 22:30N 46°57' E 031°59'0 0.0
2017-Oct-13 22:01N 46°57' E 031°59'0 0.0
2017-Oct-13 21:31N 46°57' E 031°59'0 0.0
2017-Oct-13 21:00N 46°57' E 031°59'0 0.0
2017-Oct-13 20:30N 46°57' E 031°59'0 0.0
2017-Oct-13 20:00N 46°57' E 031°59'0 0.0
2017-Oct-13 19:30N 46°57' E 031°59'0 0.0
2017-Oct-13 19:00N 46°57' E 031°59'0 0.0
2017-Oct-13 18:30N 46°57' E 031°59'0 0.0
2017-Oct-13 18:00N 46°57' E 031°59'0 0.0
2017-Oct-13 17:30N 46°57' E 031°59'0 0.0
2017-Oct-13 17:00N 46°57' E 031°59'0 0.0
2017-Oct-13 16:30N 46°57' E 031°59'0 0.0
2017-Oct-13 16:00N 46°57' E 031°59'0 0.0
2017-Oct-13 15:30N 46°57' E 031°59'0 0.0
2017-Oct-13 15:00N 46°57' E 031°59'0 0.0
2017-Oct-13 14:30N 46°57' E 031°59'0 0.0
2017-Oct-13 14:00N 46°57' E 031°59'0 0.0
2017-Oct-13 13:30N 46°57' E 031°59'0 0.0
2017-Oct-13 13:00N 46°57' E 031°59'0 0.0
2017-Oct-13 12:30N 46°57' E 031°59'0 0.0
2017-Oct-13 12:00N 46°57' E 031°59'0 0.0
2017-Oct-13 11:30N 46°57' E 031°59'0 0.0
2017-Oct-13 11:00N 46°57' E 031°59'0 0.0
2017-Oct-13 10:30N 46°57' E 031°59'0 0.0
2017-Oct-13 10:00N 46°57' E 031°59'0 0.0
2017-Oct-13 09:30N 46°57' E 031°59'0 0.0
2017-Oct-13 09:00N 46°57' E 031°59'0 0.0
2017-Oct-13 08:30N 46°57' E 031°59'0 0.0
2017-Oct-13 08:00N 46°57' E 031°59'0 0.0
2017-Oct-13 07:30N 46°57' E 031°59'0 0.0
2017-Oct-13 07:00N 46°57' E 031°59'0 0.0
2017-Oct-13 06:30N 46°57' E 031°59'0 0.0
2017-Oct-13 06:00N 46°57' E 031°59'0 0.0
2017-Oct-13 05:30N 46°57' E 031°59'0 0.0
2017-Oct-13 05:00N 46°57' E 031°59'0 0.0
2017-Oct-13 04:30N 46°57' E 031°59'0 0.0
2017-Oct-13 04:00N 46°57' E 031°59'0 0.0
2017-Oct-13 03:30N 46°57' E 031°59'0 0.0
2017-Oct-13 03:00N 46°57' E 031°59'0 0.0
2017-Oct-13 02:30N 46°57' E 031°59'0 0.0
2017-Oct-13 02:00N 46°57' E 031°59'0 0.0
2017-Oct-13 01:30N 46°57' E 031°59'0 0.0
2017-Oct-13 01:00N 46°57' E 031°59'0 0.0
2017-Oct-13 00:30N 46°57' E 031°59'0 0.0
2017-Oct-13 00:00N 46°57' E 031°59'0 0.0
2017-Oct-12 23:30N 46°57' E 031°59'0 0.0
2017-Oct-12 23:00N 46°57' E 031°59'0 0.0
2017-Oct-12 22:30N 46°57' E 031°59'0 0.0
2017-Oct-12 22:00N 46°57' E 031°59'0 0.0
2017-Oct-12 21:30N 46°57' E 031°59'0 0.0
2017-Oct-12 21:00N 46°57' E 031°59'0 0.0
2017-Oct-12 20:30N 46°57' E 031°59'0 0.0
2017-Oct-12 20:00N 46°57' E 031°59'0 0.0
2017-Oct-12 19:30N 46°57' E 031°59'0 0.0
2017-Oct-12 19:00N 46°57' E 031°59'0 0.0
2017-Oct-12 18:30N 46°57' E 031°59'0 0.0
2017-Oct-12 18:00N 46°57' E 031°59'0 0.0
2017-Oct-12 17:30N 46°57' E 031°59'0 0.0
2017-Oct-12 17:00N 46°57' E 031°59'0 0.0
2017-Oct-12 16:30N 46°57' E 031°59'0 0.0
2017-Oct-12 16:00N 46°57' E 031°59'0 0.0
2017-Oct-12 15:30N 46°57' E 031°59'0 0.0
2017-Oct-12 15:00N 46°57' E 031°59'0 0.0
2017-Oct-12 14:30N 46°57' E 031°59'0 0.0
2017-Oct-12 14:00N 46°57' E 031°59'0 0.0
2017-Oct-12 13:30N 46°57' E 031°59'  

Dump ship's entire track history